Time;durP1;ratioP1;P1;durP2;ratioP2;P2;SDS_P1;SDS_P2;PMS_P1;PMS_P2;Temp;Humidity;BMP_temperature;BMP_pressure;BME280_temperature;BME280_humidity;BME280_pressure;Samples;Min_cycle;Max_cycle;Signal;HPM_P1;HPM_P2
2021/11/23 00:01:17;;;;;;;5.20;2.90;;;1.90;99.90;;;;;;5041120;28;20623;-83
2021/11/23 00:03:47;;;;;;;4.78;3.00;;;1.80;99.90;;;;;;5056508;28;20419;-83
2021/11/23 00:06:15;;;;;;;4.95;3.60;;;1.90;99.90;;;;;;5039142;28;20199;-83
2021/11/23 00:08:42;;;;;;;3.55;2.55;;;1.70;99.90;;;;;;5033480;28;20199;-83
2021/11/23 00:11:10;;;;;;;6.32;3.15;;;1.70;99.90;;;;;;5042748;28;20201;-83
2021/11/23 00:13:38;;;;;;;5.45;3.67;;;1.70;99.90;;;;;;5044977;28;20512;-83
2021/11/23 00:16:05;;;;;;;3.60;2.58;;;1.70;99.90;;;;;;5039122;28;20204;-83
2021/11/23 00:18:35;;;;;;;4.32;3.35;;;1.60;99.90;;;;;;5042349;28;20204;-83
2021/11/23 00:21:03;;;;;;;3.90;2.67;;;1.70;99.90;;;;;;5033013;28;20219;-84
2021/11/23 00:23:31;;;;;;;6.35;3.83;;;1.90;99.90;;;;;;5041229;28;20227;-84
2021/11/23 00:25:59;;;;;;;6.30;3.45;;;2.20;99.90;;;;;;5049340;28;20207;-84
2021/11/23 00:28:27;;;;;;;5.82;3.15;;;2.20;99.90;;;;;;5046470;28;20215;-83
2021/11/23 00:30:54;;;;;;;5.22;3.40;;;2.20;99.90;;;;;;5045320;28;20208;-85
2021/11/23 00:33:23;;;;;;;5.18;3.33;;;2.20;99.90;;;;;;5047275;28;20210;-86
2021/11/23 00:35:50;;;;;;;4.63;3.25;;;2.10;99.90;;;;;;5028917;28;20211;-86
2021/11/23 00:38:18;;;;;;;7.35;4.18;;;2.00;99.90;;;;;;5046681;28;20557;-87
2021/11/23 00:40:45;;;;;;;8.75;4.40;;;1.90;99.90;;;;;;5043225;28;20209;-85
2021/11/23 00:43:13;;;;;;;5.22;3.53;;;1.80;99.90;;;;;;5042391;28;20562;-84
2021/11/23 00:45:41;;;;;;;5.95;4.15;;;1.90;99.90;;;;;;5028336;28;20611;-84
2021/11/23 00:48:09;;;;;;;6.80;4.25;;;2.10;99.90;;;;;;5044641;28;20200;-85
2021/11/23 00:50:38;;;;;;;6.38;5.45;;;2.30;99.90;;;;;;5049737;28;20199;-84
2021/11/23 00:53:07;;;;;;;5.95;4.53;;;2.30;99.90;;;;;;5031266;28;20200;-85
2021/11/23 00:55:35;;;;;;;4.38;3.22;;;2.30;99.90;;;;;;5036145;28;20383;-84
2021/11/23 00:58:02;;;;;;;4.32;3.30;;;2.40;99.90;;;;;;5043525;28;20234;-84
2021/11/23 01:00:30;;;;;;;4.75;3.47;;;2.40;99.90;;;;;;5050305;28;20203;-85
2021/11/23 01:02:58;;;;;;;5.38;3.72;;;2.40;99.90;;;;;;5044968;28;20231;-84
2021/11/23 01:05:26;;;;;;;5.63;3.40;;;2.20;99.90;;;;;;5039884;28;20212;-84
2021/11/23 01:07:55;;;;;;;3.53;3.17;;;2.10;99.90;;;;;;5052621;28;20243;-83
2021/11/23 01:10:23;;;;;;;5.43;3.85;;;2.00;99.90;;;;;;5045150;28;20532;-85
2021/11/23 01:12:52;;;;;;;5.95;4.20;;;1.90;99.90;;;;;;5043142;28;20223;-85
2021/11/23 01:15:21;;;;;;;4.68;4.28;;;1.70;99.90;;;;;;5042438;28;20486;-84
2021/11/23 01:17:54;;;;;;;3.53;2.80;;;1.80;99.90;;;;;;5052262;28;20232;-84
2021/11/23 01:20:23;;;;;;;4.72;3.40;;;1.70;99.90;;;;;;5045772;28;20215;-85
2021/11/23 01:22:51;;;;;;;4.10;3.08;;;1.50;99.90;;;;;;5028616;28;20266;-84
2021/11/23 01:25:19;;;;;;;2.83;2.50;;;1.50;99.90;;;;;;5043271;28;20204;-84
2021/11/23 01:27:46;;;;;;;3.10;2.85;;;1.40;99.90;;;;;;5049561;28;20541;-83
2021/11/23 01:30:14;;;;;;;3.63;3.33;;;1.30;99.90;;;;;;5046717;28;20242;-83
2021/11/23 01:32:42;;;;;;;4.57;2.40;;;1.20;99.90;;;;;;5043356;28;20624;-84
2021/11/23 01:35:14;;;;;;;3.22;2.72;;;1.10;99.90;;;;;;5030127;28;20236;-83
2021/11/23 01:37:43;;;;;;;3.10;2.90;;;1.10;99.90;;;;;;5037658;28;20200;-84
2021/11/23 01:40:12;;;;;;;4.70;2.60;;;1.20;99.90;;;;;;5037048;28;20494;-84
2021/11/23 01:42:39;;;;;;;3.88;3.47;;;1.10;99.90;;;;;;5036427;28;20224;-83
2021/11/23 01:45:08;;;;;;;4.30;3.58;;;1.20;99.90;;;;;;5033949;28;20238;-84
2021/11/23 01:47:35;;;;;;;5.63;3.47;;;1.20;99.90;;;;;;5037156;28;20436;-83
2021/11/23 01:50:04;;;;;;;8.05;3.97;;;1.10;99.90;;;;;;5037169;28;20267;-84
2021/11/23 01:52:33;;;;;;;4.50;3.53;;;1.00;99.90;;;;;;5039176;28;20200;-83
2021/11/23 01:55:02;;;;;;;3.80;2.70;;;1.00;99.90;;;;;;5041849;28;20196;-83
2021/11/23 01:57:29;;;;;;;6.05;3.42;;;0.70;99.90;;;;;;5041937;28;20216;-84
2021/11/23 01:59:57;;;;;;;5.18;3.25;;;0.80;99.90;;;;;;5038681;28;20200;-84
2021/11/23 02:02:25;;;;;;;5.03;4.20;;;0.80;99.90;;;;;;5053311;28;20226;-86
2021/11/23 02:04:52;;;;;;;5.55;3.58;;;0.80;99.90;;;;;;5038075;28;20215;-85
2021/11/23 02:07:20;;;;;;;7.60;3.83;;;0.80;99.90;;;;;;5055341;28;20259;-84
2021/11/23 02:09:47;;;;;;;4.40;3.80;;;0.80;99.90;;;;;;5031311;28;20208;-83
2021/11/23 02:12:14;;;;;;;6.13;4.13;;;0.90;99.90;;;;;;5028153;28;20200;-83
2021/11/23 02:14:42;;;;;;;3.55;3.25;;;1.00;99.90;;;;;;5034495;28;20258;-82
2021/11/23 02:17:09;;;;;;;5.20;3.00;;;0.90;99.90;;;;;;5046831;28;20247;-83
2021/11/23 02:19:37;;;;;;;3.20;2.90;;;0.90;99.90;;;;;;5047363;28;20490;-82
2021/11/23 02:22:04;;;;;;;4.05;3.10;;;0.80;99.90;;;;;;5029487;28;20224;-83
2021/11/23 02:24:35;;;;;;;4.30;3.88;;;0.70;99.90;;;;;;5036883;28;20228;-83
2021/11/23 02:27:02;;;;;;;3.65;3.35;;;0.70;99.90;;;;;;5031936;28;20200;-84
2021/11/23 02:29:30;;;;;;;5.43;3.75;;;0.60;99.90;;;;;;5034105;28;20200;-83
2021/11/23 02:31:57;;;;;;;3.03;2.83;;;0.60;99.90;;;;;;5030145;28;20246;-83
2021/11/23 02:34:26;;;;;;;5.15;3.83;;;0.60;99.90;;;;;;5032417;28;20425;-85
2021/11/23 02:36:54;;;;;;;4.40;2.95;;;0.50;99.90;;;;;;5051916;28;20258;-84
2021/11/23 02:39:23;;;;;;;5.15;3.70;;;0.40;99.90;;;;;;5038136;28;20213;-85
2021/11/23 02:41:51;;;;;;;3.85;3.22;;;0.50;99.90;;;;;;5041073;28;20203;-84
2021/11/23 02:44:19;;;;;;;4.28;3.17;;;0.40;99.90;;;;;;5035396;28;20228;-84
2021/11/23 02:46:47;;;;;;;7.22;3.42;;;0.40;99.90;;;;;;5039536;28;20196;-83
2021/11/23 02:49:15;;;;;;;4.32;3.28;;;0.50;99.90;;;;;;5045364;28;20271;-85
2021/11/23 02:51:42;;;;;;;6.25;3.65;;;0.50;99.90;;;;;;5043042;28;20196;-84
2021/11/23 02:54:10;;;;;;;4.97;3.22;;;0.60;99.90;;;;;;5046808;28;20204;-84
2021/11/23 02:56:37;;;;;;;3.13;2.83;;;0.70;99.90;;;;;;5035059;28;20506;-85
2021/11/23 02:59:04;;;;;;;4.35;3.65;;;0.70;99.90;;;;;;5052070;28;20200;-84
2021/11/23 03:01:32;;;;;;;4.28;3.97;;;0.60;99.90;;;;;;5041239;28;20204;-83
2021/11/23 03:04:00;;;;;;;5.28;4.03;;;0.60;99.90;;;;;;5043063;28;20220;-83
2021/11/23 03:06:27;;;;;;;4.22;3.60;;;0.50;99.90;;;;;;5042679;28;20212;-84
2021/11/23 03:08:54;;;;;;;2.80;2.60;;;0.50;99.90;;;;;;5048083;28;20204;-84
2021/11/23 03:11:24;;;;;;;3.20;2.97;;;0.50;99.90;;;;;;5057370;28;20509;-84
2021/11/23 03:13:51;;;;;;;7.05;4.13;;;0.60;99.90;;;;;;5044922;28;20525;-84
2021/11/23 03:16:19;;;;;;;5.07;3.67;;;0.50;99.90;;;;;;5042931;28;20228;-83
2021/11/23 03:18:47;;;;;;;3.90;3.25;;;0.50;99.90;;;;;;5040065;28;20209;-83
2021/11/23 03:21:14;;;;;;;4.20;3.25;;;0.50;99.90;;;;;;5044706;28;20211;-83
2021/11/23 03:23:41;;;;;;;3.40;2.88;;;0.50;99.90;;;;;;5038427;28;20224;-82
2021/11/23 03:26:10;;;;;;;6.63;3.63;;;0.60;99.90;;;;;;5045277;28;20204;-83
2021/11/23 03:28:38;;;;;;;6.68;3.75;;;0.80;99.90;;;;;;5036280;28;20243;-83
2021/11/23 03:31:06;;;;;;;5.05;3.22;;;0.70;99.90;;;;;;5030678;28;20419;-83
2021/11/23 03:33:33;;;;;;;3.75;3.20;;;0.60;99.90;;;;;;5035204;28;20211;-83
2021/11/23 03:36:01;;;;;;;3.47;3.15;;;0.60;99.90;;;;;;5052923;28;20292;-83
2021/11/23 03:38:28;;;;;;;3.30;2.45;;;0.60;99.90;;;;;;5044511;28;20379;-83
2021/11/23 03:40:56;;;;;;;7.00;3.20;;;0.50;99.90;;;;;;5048425;28;20262;-83
2021/11/23 03:43:23;;;;;;;4.70;2.90;;;0.70;99.90;;;;;;5041069;28;20228;-83
2021/11/23 03:45:51;;;;;;;3.80;3.50;;;0.60;99.90;;;;;;5037333;28;20207;-84
2021/11/23 03:48:18;;;;;;;4.60;3.05;;;0.60;99.90;;;;;;5044605;28;20482;-83
2021/11/23 03:50:46;;;;;;;5.10;3.03;;;0.60;99.90;;;;;;5045724;28;20267;-82
2021/11/23 03:53:13;;;;;;;3.83;3.22;;;0.60;99.90;;;;;;5048226;28;20210;-82
2021/11/23 03:55:48;;;;;;;3.85;3.17;;;0.50;99.90;;;;;;5038226;28;20204;-82
2021/11/23 03:58:15;;;;;;;3.33;3.03;;;0.40;99.90;;;;;;5038114;28;20208;-83
2021/11/23 04:00:44;;;;;;;3.03;2.83;;;0.40;99.90;;;;;;5033452;28;20205;-84
2021/11/23 04:03:13;;;;;;;4.25;3.50;;;0.40;99.90;;;;;;5039843;28;20267;-84
2021/11/23 04:05:40;;;;;;;4.85;3.50;;;0.50;99.90;;;;;;5048691;28;20203;-84
2021/11/23 04:08:08;;;;;;;4.28;3.53;;;0.50;99.90;;;;;;5047301;28;20201;-85
2021/11/23 04:10:35;;;;;;;5.15;3.15;;;0.40;99.90;;;;;;5059515;28;20241;-83
2021/11/23 04:13:03;;;;;;;7.30;3.42;;;0.50;99.90;;;;;;5050858;28;20212;-83
2021/11/23 04:15:31;;;;;;;5.97;3.55;;;0.60;99.90;;;;;;5045734;28;20197;-84
2021/11/23 04:17:58;;;;;;;4.80;3.05;;;0.50;99.90;;;;;;5050947;28;20207;-82
2021/11/23 04:20:26;;;;;;;3.40;3.10;;;0.50;99.90;;;;;;5045569;28;20223;-82
2021/11/23 04:22:53;;;;;;;3.30;2.85;;;0.50;99.90;;;;;;5042804;28;20207;-82
2021/11/23 04:25:21;;;;;;;3.92;3.20;;;0.50;99.90;;;;;;5033402;28;20418;-82
2021/11/23 04:27:49;;;;;;;4.93;3.72;;;0.50;99.90;;;;;;5062097;28;20199;-81
2021/11/23 04:30:17;;;;;;;5.43;4.93;;;0.50;99.90;;;;;;5042865;28;20212;-83
2021/11/23 04:32:44;;;;;;;10.13;3.90;;;0.40;99.90;;;;;;5041311;28;20216;-83
2021/11/23 04:35:13;;;;;;;3.55;3.25;;;0.50;99.90;;;;;;5030469;28;20208;-84
2021/11/23 04:37:41;;;;;;;5.05;3.08;;;0.50;99.90;;;;;;5044055;28;20212;-82
2021/11/23 04:40:12;;;;;;;5.68;3.95;;;0.40;99.90;;;;;;5042190;28;20200;-82
2021/11/23 04:42:41;;;;;;;5.55;4.05;;;0.40;99.90;;;;;;5027156;28;20503;-82
2021/11/23 04:45:11;;;;;;;6.93;4.38;;;0.20;99.90;;;;;;5041550;28;20314;-82
2021/11/23 04:47:39;;;;;;;4.55;3.17;;;0.40;99.90;;;;;;5042457;28;20209;-83
2021/11/23 04:50:09;;;;;;;8.07;3.45;;;0.30;99.90;;;;;;5044314;28;20243;-83
2021/11/23 04:52:37;;;;;;;3.95;2.80;;;0.20;99.90;;;;;;5041098;28;20196;-83
2021/11/23 04:55:05;;;;;;;5.05;3.85;;;0.10;99.90;;;;;;5056138;28;20239;-83
2021/11/23 04:57:33;;;;;;;7.55;5.43;;;0.10;99.90;;;;;;5044652;28;20496;-84
2021/11/23 05:00:00;;;;;;;3.80;3.45;;;0.20;99.90;;;;;;5041343;28;20201;-84
2021/11/23 05:02:28;;;;;;;5.57;3.28;;;0.20;99.90;;;;;;5036600;28;20205;-83
2021/11/23 05:04:56;;;;;;;4.00;3.38;;;0.20;99.90;;;;;;5042006;28;20233;-85
2021/11/23 05:07:23;;;;;;;4.50;3.28;;;0.20;99.90;;;;;;5041961;28;20239;-83
2021/11/23 05:09:50;;;;;;;4.22;3.70;;;0.20;99.90;;;;;;5050630;28;20262;-84
2021/11/23 05:12:20;;;;;;;4.55;3.42;;;0.20;99.90;;;;;;5038043;28;20201;-84
2021/11/23 05:14:48;;;;;;;6.75;6.07;;;0.40;99.90;;;;;;5040863;28;20204;-83
2021/11/23 05:17:16;;;;;;;5.40;4.10;;;0.40;99.90;;;;;;5043858;28;20516;-83
2021/11/23 05:19:44;;;;;;;4.68;4.20;;;0.40;99.90;;;;;;5035759;28;20242;-83
2021/11/23 05:22:11;;;;;;;5.78;3.78;;;0.30;99.90;;;;;;5042249;28;20204;-84
2021/11/23 05:24:38;;;;;;;7.88;4.03;;;0.30;99.90;;;;;;5035746;28;20540;-83
2021/11/23 05:27:07;;;;;;;7.97;4.97;;;0.30;99.90;;;;;;5036746;28;20197;-83
2021/11/23 05:29:34;;;;;;;3.90;3.50;;;0.30;99.90;;;;;;5038038;28;20211;-84
2021/11/23 05:32:03;;;;;;;3.28;2.97;;;0.30;99.90;;;;;;5043010;28;20208;-84
2021/11/23 05:34:31;;;;;;;4.57;3.92;;;0.20;99.90;;;;;;5034142;28;20205;-83
2021/11/23 05:36:59;;;;;;;3.80;2.95;;;0.30;99.90;;;;;;5034710;28;20242;-83
2021/11/23 05:39:27;;;;;;;4.50;3.67;;;0.40;99.90;;;;;;5043785;28;20254;-82
2021/11/23 05:41:54;;;;;;;6.63;3.65;;;0.40;99.90;;;;;;5035452;28;20518;-82
2021/11/23 05:44:22;;;;;;;4.63;4.07;;;0.40;99.90;;;;;;5036045;28;20216;-84
2021/11/23 05:46:49;;;;;;;4.30;3.67;;;0.30;99.90;;;;;;5030963;28;20209;-83
2021/11/23 05:49:17;;;;;;;3.20;2.90;;;0.20;99.90;;;;;;5032736;28;20201;-84
2021/11/23 05:51:46;;;;;;;3.08;2.65;;;0.20;99.90;;;;;;5043768;28;20204;-84
2021/11/23 05:54:14;;;;;;;7.43;4.07;;;0.10;99.90;;;;;;5042716;28;20208;-83
2021/11/23 05:56:41;;;;;;;7.80;3.97;;;0.20;99.90;;;;;;5043018;28;20188;-83
2021/11/23 05:59:09;;;;;;;3.25;2.95;;;0.10;99.90;;;;;;5034091;28;20243;-85
2021/11/23 06:01:37;;;;;;;6.78;3.85;;;-0.10;99.90;;;;;;5035728;28;20208;-84
2021/11/23 06:04:05;;;;;;;10.77;3.70;;;0.00;99.90;;;;;;5047823;28;20235;-83
2021/11/23 06:06:32;;;;;;;5.82;4.05;;;0.00;99.90;;;;;;5040779;28;20196;-83
2021/11/23 06:08:59;;;;;;;5.40;4.20;;;0.20;99.90;;;;;;5039073;28;20209;-83
2021/11/23 06:11:26;;;;;;;10.27;5.10;;;0.30;99.90;;;;;;5033230;28;20216;-84
2021/11/23 06:13:54;;;;;;;7.55;4.20;;;0.30;99.90;;;;;;5033596;28;20388;-83
2021/11/23 06:16:21;;;;;;;6.82;4.00;;;0.30;99.90;;;;;;5032345;28;20430;-83
2021/11/23 06:18:49;;;;;;;10.18;4.60;;;0.30;99.90;;;;;;5030904;28;20293;-84
2021/11/23 06:21:18;;;;;;;5.53;4.18;;;0.50;99.90;;;;;;5037850;28;20250;-83
2021/11/23 06:23:49;;;;;;;7.43;4.50;;;0.50;99.90;;;;;;5038285;28;20446;-84
2021/11/23 06:26:20;;;;;;;6.70;3.72;;;0.50;99.90;;;;;;5033137;28;20196;-83
2021/11/23 06:28:47;;;;;;;3.92;3.22;;;0.50;99.90;;;;;;5037968;28;20233;-84
2021/11/23 06:31:15;;;;;;;4.40;2.78;;;0.50;99.90;;;;;;5033891;28;20235;-85
2021/11/23 06:33:42;;;;;;;5.93;2.67;;;0.50;99.90;;;;;;5037543;28;20205;-84
2021/11/23 06:36:10;;;;;;;4.90;3.20;;;0.40;99.90;;;;;;5031650;28;20506;-85
2021/11/23 06:38:37;;;;;;;6.55;3.30;;;0.40;99.90;;;;;;5036159;28;20344;-85
2021/11/23 06:41:05;;;;;;;8.38;3.45;;;0.40;99.90;;;;;;5055609;28;20223;-84
2021/11/23 06:43:32;;;;;;;5.78;4.45;;;0.60;99.90;;;;;;5037626;28;20196;-84
2021/11/23 06:46:00;;;;;;;5.13;3.58;;;0.50;99.90;;;;;;5034351;28;20282;-85
2021/11/23 06:48:27;;;;;;;4.30;3.88;;;0.60;99.90;;;;;;5033229;28;20197;-84
2021/11/23 06:50:55;;;;;;;5.22;3.40;;;0.70;99.90;;;;;;5035791;28;20263;-84
2021/11/23 06:53:22;;;;;;;7.15;4.35;;;0.70;99.90;;;;;;5040320;28;20220;-83
2021/11/23 06:55:49;;;;;;;7.35;4.57;;;0.70;99.90;;;;;;5036556;28;20236;-84
2021/11/23 06:58:18;;;;;;;6.13;4.45;;;0.80;99.90;;;;;;5032908;28;20204;-84
2021/11/23 07:00:45;;;;;;;7.88;6.63;;;0.70;99.90;;;;;;5039339;28;20212;-85
2021/11/23 07:03:13;;;;;;;7.78;4.93;;;0.80;99.90;;;;;;5033719;28;20221;-82
2021/11/23 07:05:41;;;;;;;6.55;4.72;;;1.10;99.90;;;;;;5039793;28;20409;-84
2021/11/23 07:08:25;;;;;;;6.82;4.45;;;1.00;99.90;;;;;;5045461;28;20239;-84
2021/11/23 07:10:52;;;;;;;7.18;4.55;;;1.10;99.90;;;;;;5043291;28;20199;-84
2021/11/23 07:13:20;;;;;;;5.07;4.47;;;1.30;99.90;;;;;;5037311;28;20197;-84
2021/11/23 07:15:48;;;;;;;3.60;3.30;;;1.30;99.90;;;;;;5027840;28;20208;-84
2021/11/23 07:18:15;;;;;;;8.77;3.15;;;1.40;99.90;;;;;;5034708;28;20379;-84
2021/11/23 07:20:44;;;;;;;7.65;4.97;;;1.40;99.90;;;;;;5041802;28;20219;-84
2021/11/23 07:23:14;;;;;;;6.28;5.30;;;1.40;99.90;;;;;;5056792;28;20275;-84
2021/11/23 07:25:41;;;;;;;8.75;5.50;;;1.60;99.90;;;;;;5026548;28;20268;-82
2021/11/23 07:28:09;;;;;;;10.80;6.10;;;1.70;99.90;;;;;;5050485;28;20211;-85
2021/11/23 07:30:37;;;;;;;6.28;4.20;;;2.00;99.90;;;;;;5035761;28;20272;-83
2021/11/23 07:33:05;;;;;;;6.82;3.75;;;2.80;99.90;;;;;;5028719;28;20189;-83
2021/11/23 07:35:32;;;;;;;5.53;3.92;;;3.30;99.90;;;;;;5033704;28;20348;-82
2021/11/23 07:38:00;;;;;;;11.27;3.63;;;4.00;99.90;;;;;;5045946;28;20208;-83
2021/11/23 07:40:27;;;;;;;5.00;4.60;;;4.40;99.90;;;;;;5031771;28;20206;-82
2021/11/23 07:42:55;;;;;;;4.85;3.47;;;4.70;99.90;;;;;;5039178;28;20331;-83
2021/11/23 07:45:38;;;;;;;6.10;3.20;;;4.50;99.90;;;;;;5043501;28;20259;-82
2021/11/23 07:48:07;;;;;;;13.60;3.10;;;4.10;99.90;;;;;;5042931;28;20199;-82
2021/11/23 07:50:34;;;;;;;6.95;3.88;;;3.80;99.90;;;;;;5052089;28;20212;-83
2021/11/23 07:53:03;;;;;;;8.23;3.17;;;3.50;99.90;;;;;;5037836;28;20528;-83
2021/11/23 07:55:30;;;;;;;3.53;3.03;;;3.30;99.90;;;;;;5033611;28;20202;-82
2021/11/23 07:57:58;;;;;;;4.20;2.58;;;3.30;99.90;;;;;;5034416;28;20392;-83
2021/11/23 08:00:26;;;;;;;8.52;3.70;;;3.20;99.90;;;;;;5035648;28;20197;-84
2021/11/23 08:02:54;;;;;;;8.02;3.53;;;3.20;99.90;;;;;;5032623;28;20210;-82
2021/11/23 08:05:22;;;;;;;6.15;2.85;;;3.20;99.90;;;;;;5035658;28;20225;-83
2021/11/23 08:07:50;;;;;;;2.63;2.38;;;3.30;99.90;;;;;;5031211;28;20357;-83
2021/11/23 08:10:18;;;;;;;5.80;2.97;;;3.50;99.90;;;;;;5044811;28;20229;-84
2021/11/23 08:12:46;;;;;;;4.68;3.60;;;3.60;99.90;;;;;;5027928;28;20247;-83
2021/11/23 08:15:13;;;;;;;4.32;2.63;;;3.50;99.90;;;;;;5030559;28;20216;-83
2021/11/23 08:17:41;;;;;;;5.43;3.53;;;3.50;99.90;;;;;;5029393;28;20277;-83
2021/11/23 08:20:11;;;;;;;6.18;3.15;;;3.40;99.90;;;;;;5037838;28;20243;-83
2021/11/23 08:22:40;;;;;;;3.35;2.60;;;3.40;99.90;;;;;;5040275;28;20267;-83
2021/11/23 08:25:08;;;;;;;4.95;2.38;;;3.50;99.90;;;;;;5033490;28;20228;-83
2021/11/23 08:27:36;;;;;;;7.05;3.30;;;3.60;99.90;;;;;;5034890;28;20217;-84
2021/11/23 08:30:06;;;;;;;5.05;2.88;;;3.60;99.90;;;;;;5029754;28;20217;-83
2021/11/23 08:32:35;;;;;;;5.75;3.40;;;3.90;99.90;;;;;;5043125;28;20471;-84
2021/11/23 08:35:04;;;;;;;7.15;2.45;;;4.40;99.90;;;;;;5042412;28;20198;-83
2021/11/23 08:37:32;;;;;;;4.50;2.75;;;5.30;99.90;;;;;;5029450;28;20223;-83
2021/11/23 08:40:00;;;;;;;4.95;2.90;;;6.20;99.90;;;;;;5025288;28;20204;-84
2021/11/23 08:42:27;;;;;;;5.57;2.25;;;7.30;99.90;;;;;;5039599;28;20474;-82
2021/11/23 08:44:55;;;;;;;1.92;1.70;;;8.10;99.90;;;;;;5041994;28;20218;-83
2021/11/23 08:47:25;;;;;;;8.13;2.17;;;8.70;99.90;;;;;;5041100;28;20263;-83
2021/11/23 08:49:54;;;;;;;3.53;2.30;;;8.90;99.90;;;;;;5035723;28;20271;-82
2021/11/23 08:52:26;;;;;;;4.90;2.17;;;8.90;99.90;;;;;;5044522;28;20200;-83
2021/11/23 08:54:54;;;;;;;2.85;2.65;;;8.70;99.90;;;;;;5040257;28;20217;-82
2021/11/23 08:57:23;;;;;;;4.05;1.95;;;8.20;99.90;;;;;;5038734;28;20604;-84
2021/11/23 08:59:51;;;;;;;3.65;2.35;;;7.80;99.90;;;;;;5040655;28;20418;-82
2021/11/23 09:02:19;;;;;;;4.45;2.20;;;7.50;99.90;;;;;;5045753;28;20203;-84
2021/11/23 09:04:47;;;;;;;2.75;1.52;;;7.10;99.90;;;;;;5028576;28;20243;-84
2021/11/23 09:07:20;;;;;;;3.33;1.85;;;6.80;99.90;;;;;;5047578;28;20363;-83
2021/11/23 09:09:48;;;;;;;7.72;1.88;;;6.50;99.90;;;;;;5040430;28;20196;-83
2021/11/23 09:12:19;;;;;;;2.85;2.00;;;6.40;99.90;;;;;;5034350;28;20212;-83
2021/11/23 09:14:46;;;;;;;2.22;2.00;;;6.60;99.90;;;;;;5026111;28;20418;-84
2021/11/23 09:17:14;;;;;;;3.08;2.72;;;6.70;99.90;;;;;;5037159;28;20204;-86
2021/11/23 09:19:42;;;;;;;5.40;2.63;;;6.30;99.90;;;;;;5038781;28;20196;-83
2021/11/23 09:22:10;;;;;;;3.03;2.50;;;6.40;99.90;;;;;;5033233;28;20507;-85
2021/11/23 09:24:38;;;;;;;4.82;2.63;;;6.40;99.90;;;;;;5035823;28;20308;-85
2021/11/23 09:27:05;;;;;;;9.50;3.25;;;6.40;99.90;;;;;;5041258;28;20189;-84
2021/11/23 09:29:33;;;;;;;3.95;3.15;;;6.60;99.90;;;;;;5038251;28;20327;-84
2021/11/23 09:32:01;;;;;;;2.92;2.25;;;6.50;99.90;;;;;;5029044;28;20266;-84
2021/11/23 09:34:30;;;;;;;3.00;2.17;;;6.60;99.90;;;;;;5044741;28;20203;-84
2021/11/23 09:36:57;;;;;;;4.75;2.55;;;6.60;99.90;;;;;;5047594;28;20251;-84
2021/11/23 09:39:25;;;;;;;8.32;3.05;;;6.50;99.90;;;;;;5044468;28;20250;-86
2021/11/23 09:41:52;;;;;;;6.53;2.63;;;6.60;99.90;;;;;;5039276;28;20219;-86
2021/11/23 09:44:20;;;;;;;5.68;3.03;;;6.60;99.90;;;;;;5034118;28;20207;-85
2021/11/23 09:46:47;;;;;;;3.60;2.42;;;6.60;99.90;;;;;;5040796;28;20293;-85
2021/11/23 09:49:16;;;;;;;6.05;3.47;;;6.60;99.90;;;;;;5041904;28;20517;-86
2021/11/23 09:51:45;;;;;;;3.65;2.90;;;6.70;99.90;;;;;;5041375;28;20207;-86
2021/11/23 09:54:13;;;;;;;4.90;2.50;;;6.90;99.90;;;;;;5040955;28;20201;-84
2021/11/23 09:56:44;;;;;;;4.50;2.88;;;6.90;99.90;;;;;;5036812;28;20201;-86
2021/11/23 09:59:12;;;;;;;4.10;2.30;;;6.80;99.90;;;;;;5025376;28;20200;-84
2021/11/23 10:01:59;;;;;;;5.55;2.65;;;6.70;99.90;;;;;;5038052;28;20235;-85
2021/11/23 10:05:12;;;;;;;3.08;2.83;;;6.60;99.90;;;;;;5036097;28;20275;-85
2021/11/23 10:07:42;;;;;;;5.95;2.70;;;6.40;99.90;;;;;;5039216;28;20231;-84
2021/11/23 10:10:28;;;;;;;10.73;2.50;;;6.40;99.90;;;;;;5034924;28;20200;-84
2021/11/23 10:12:58;;;;;;;4.22;2.50;;;6.50;99.90;;;;;;5034055;28;20409;-85
2021/11/23 10:15:34;;;;;;;14.48;3.50;;;6.50;99.90;;;;;;5039116;28;20395;-84
2021/11/23 10:18:19;;;;;;;3.28;2.40;;;6.50;99.90;;;;;;5036252;28;20267;-86
2021/11/23 10:20:52;;;;;;;2.58;2.38;;;6.60;99.90;;;;;;5040596;28;20235;-85
2021/11/23 10:23:47;;;;;;;9.40;2.83;;;6.50;99.90;;;;;;5031492;28;20207;-86
2021/11/23 10:26:22;;;;;;;4.28;3.45;;;6.50;99.90;;;;;;5039176;28;20220;-85
2021/11/23 10:29:03;;;;;;;5.30;3.13;;;6.50;99.90;;;;;;5040714;28;20199;-88
2021/11/23 10:31:32;;;;;;;8.20;3.70;;;6.50;99.90;;;;;;5039457;28;20204;-86
2021/11/23 10:34:07;;;;;;;3.00;2.50;;;6.40;99.90;;;;;;5046145;28;20192;-86
2021/11/23 10:36:37;;;;;;;6.28;2.90;;;6.50;99.90;;;;;;5037810;28;20417;-85
2021/11/23 10:39:14;;;;;;;14.57;3.25;;;6.60;99.90;;;;;;5033465;28;20240;-85
2021/11/23 10:41:48;;;;;;;5.95;2.95;;;6.60;99.90;;;;;;5035597;28;20204;-87
2021/11/23 10:44:19;;;;;;;2.97;2.65;;;6.40;99.90;;;;;;5030014;28;20296;-85
2021/11/23 10:46:58;;;;;;;6.03;2.97;;;6.30;99.90;;;;;;5031670;28;20281;-85
2021/11/23 10:49:35;;;;;;;4.07;3.50;;;6.20;99.90;;;;;;5039853;28;20267;-87
2021/11/23 10:52:04;;;;;;;4.05;3.33;;;6.10;99.90;;;;;;5039865;28;20314;-86
2021/11/23 10:54:34;;;;;;;4.50;3.45;;;5.90;99.90;;;;;;5032395;28;20196;-86
2021/11/23 10:57:11;;;;;;;6.95;4.20;;;5.80;99.90;;;;;;5036920;28;20309;-85
2021/11/23 10:59:39;;;;;;;6.93;3.85;;;5.80;99.90;;;;;;5028363;28;20215;-86
2021/11/23 11:02:08;;;;;;;7.35;4.40;;;5.80;99.90;;;;;;5043415;28;20211;-85
2021/11/23 11:04:43;;;;;;;4.95;3.38;;;5.70;99.90;;;;;;5044902;28;20275;-87
2021/11/23 11:07:12;;;;;;;5.10;3.92;;;5.80;99.90;;;;;;5040365;28;20205;-85
2021/11/23 11:09:40;;;;;;;7.07;3.35;;;6.00;99.90;;;;;;5043641;28;20204;-86
2021/11/23 11:12:08;;;;;;;9.35;5.90;;;6.00;99.90;;;;;;5043954;28;20393;-86
2021/11/23 11:14:39;;;;;;;8.10;3.67;;;6.10;99.90;;;;;;5035336;28;20200;-86
2021/11/23 11:17:08;;;;;;;7.28;4.00;;;6.20;99.90;;;;;;5043481;28;20200;-86
2021/11/23 11:19:49;;;;;;;9.68;3.40;;;6.20;99.90;;;;;;5045873;28;20392;-86
2021/11/23 11:22:22;;;;;;;5.20;3.10;;;6.20;99.90;;;;;;5036048;28;20231;-86
2021/11/23 11:25:14;;;;;;;8.48;3.90;;;6.00;99.90;;;;;;5028193;28;20390;-87
2021/11/23 11:27:47;;;;;;;4.88;3.60;;;6.00;99.90;;;;;;5041907;28;20212;-85
2021/11/23 11:30:28;;;;;;;6.38;3.60;;;6.00;99.90;;;;;;5035507;28;20208;-84
2021/11/23 11:33:08;;;;;;;6.60;4.18;;;6.10;99.90;;;;;;5027769;28;20216;-84
2021/11/23 11:35:47;;;;;;;6.03;4.40;;;6.00;99.90;;;;;;5041762;28;20371;-85
2021/11/23 11:38:27;;;;;;;3.63;3.10;;;5.90;99.90;;;;;;5031107;28;20270;-84
2021/11/23 11:41:07;;;;;;;3.20;2.90;;;5.70;99.90;;;;;;5029279;28;20386;-83
2021/11/23 11:43:37;;;;;;;7.90;4.57;;;5.70;99.90;;;;;;5042216;28;20206;-85
2021/11/23 11:46:07;;;;;;;4.15;3.47;;;5.60;99.90;;;;;;5031295;28;20255;-86
2021/11/23 11:48:38;;;;;;;5.45;4.55;;;5.60;99.90;;;;;;5037298;28;20604;-86
2021/11/23 11:51:16;;;;;;;4.13;3.75;;;5.50;99.90;;;;;;5037590;28;20230;-85
2021/11/23 11:53:46;;;;;;;8.10;5.15;;;5.60;99.90;;;;;;5049913;28;20209;-87
2021/11/23 11:56:38;;;;;;;11.90;6.43;;;5.60;99.90;;;;;;5045572;28;20214;-85
2021/11/23 11:59:26;;;;;;;8.82;7.53;;;5.60;99.90;;;;;;5034211;28;20226;-85
2021/11/23 12:02:00;;;;;;;6.30;5.47;;;5.50;99.90;;;;;;5037347;28;20447;-86
2021/11/23 12:04:33;;;;;;;6.75;5.30;;;5.50;99.90;;;;;;5040101;28;20245;-84
2021/11/23 12:07:06;;;;;;;7.45;5.60;;;5.60;99.90;;;;;;5028269;28;20231;-85
2021/11/23 12:09:51;;;;;;;10.57;4.85;;;5.60;99.90;;;;;;5039750;28;20196;-86
2021/11/23 12:12:58;;;;;;;5.40;4.85;;;5.70;99.90;;;;;;5044933;28;20207;-84
2021/11/23 12:15:48;;;;;;;4.82;4.43;;;5.80;99.90;;;;;;5031063;28;20217;-87
2021/11/23 12:18:38;;;;;;;7.80;5.40;;;5.80;99.90;;;;;;5024805;28;20205;-87
2021/11/23 12:21:16;;;;;;;5.28;4.63;;;5.80;99.90;;;;;;5031222;28;20331;-84
2021/11/23 12:23:58;;;;;;;5.10;4.65;;;5.80;99.90;;;;;;5023347;28;20207;-86
2021/11/23 12:26:32;;;;;;;6.45;5.03;;;5.80;99.90;;;;;;5040475;28;20236;-87
2021/11/23 12:29:11;;;;;;;5.50;4.57;;;5.80;99.90;;;;;;5029408;28;20203;-84
2021/11/23 12:31:48;;;;;;;8.13;4.90;;;5.80;99.90;;;;;;5035340;28;20207;-85
2021/11/23 12:34:17;;;;;;;5.25;3.92;;;5.90;99.90;;;;;;5041484;28;20207;-85
2021/11/23 12:36:53;;;;;;;7.03;5.38;;;5.90;99.90;;;;;;5034845;28;20268;-86
2021/11/23 12:39:24;;;;;;;5.60;5.00;;;5.90;99.90;;;;;;5035880;28;20218;-86
2021/11/23 12:42:05;;;;;;;12.50;5.53;;;5.90;99.90;;;;;;5033297;28;20459;-87
2021/11/23 12:44:37;;;;;;;7.03;5.55;;;5.80;99.90;;;;;;5041902;28;20262;-87
2021/11/23 12:47:10;;;;;;;11.90;6.43;;;5.90;99.90;;;;;;5039135;28;20301;-86
2021/11/23 12:49:40;;;;;;;4.85;4.32;;;5.80;99.90;;;;;;5038768;28;20271;-86
2021/11/23 12:52:10;;;;;;;8.73;4.35;;;5.80;99.90;;;;;;5039775;28;20200;-84
2021/11/23 12:54:43;;;;;;;5.40;4.90;;;5.80;99.90;;;;;;5036826;28;20213;-84
2021/11/23 12:57:16;;;;;;;6.22;5.03;;;5.80;99.90;;;;;;5035434;28;20271;-85
2021/11/23 12:59:52;;;;;;;6.35;4.78;;;5.70;99.90;;;;;;5026362;28;20227;-87
2021/11/23 13:02:38;;;;;;;4.90;4.22;;;5.70;99.90;;;;;;5029853;28;20288;-84
2021/11/23 13:05:30;;;;;;;7.30;6.57;;;5.60;99.90;;;;;;5040373;28;20277;-86
2021/11/23 13:08:07;;;;;;;6.85;5.80;;;5.60;99.90;;;;;;5042335;28;20210;-88
2021/11/23 13:10:41;;;;;;;6.55;4.70;;;5.60;99.90;;;;;;5040864;28;20200;-86
2021/11/23 13:13:15;;;;;;;7.72;4.75;;;5.70;99.90;;;;;;5035753;28;20272;-87